aviador You're here:

VGHS Decoded Metar

in
Report Time2017-11-25 03:30:00
UTC Time2017-11-25 03:52:18
Flight Rules ifr IFR
Wind350° at 03 kt
W.Decomp.*RWY 32: 2.6 kt HW 1.5 kt RCW
W.Rank350° ranks 26
Current wind is below 350° avg. (6.2)
Visibility2200 m
Phenomena:Mist
Clouds:N/A
Expected CloudBase > 2,800 ft AGL from Temp-Dew spread
CeilingNone
Temp23°C
Dew Point16°C (65% RH)
QNH1016 hPa
Raw Report
METAR VGHS 250330Z 35003KT 2200 BR NSC 23/16 Q1016 BECMG S/VIS 2500M=

Extra information for VGHS:More info

Social comments